sensor_id;sensor_type;location;lat;lon;timestamp;temperature;humidity
26254;DHT22;53339;51.378;0.094;2023-06-14T00:01:42;16.10;42.20
26254;DHT22;53339;51.378;0.094;2023-06-14T00:04:13;16.00;42.20
26254;DHT22;53339;51.378;0.094;2023-06-14T00:06:44;15.90;42.30
26254;DHT22;53339;51.378;0.094;2023-06-14T00:09:12;15.90;42.20
26254;DHT22;53339;51.378;0.094;2023-06-14T00:11:41;15.80;42.10
26254;DHT22;53339;51.378;0.094;2023-06-14T00:14:09;15.80;42.00
26254;DHT22;53339;51.378;0.094;2023-06-14T00:16:37;15.80;41.80
26254;DHT22;53339;51.378;0.094;2023-06-14T00:19:06;15.80;41.70
26254;DHT22;53339;51.378;0.094;2023-06-14T00:21:34;15.80;41.50
26254;DHT22;53339;51.378;0.094;2023-06-14T00:24:02;15.80;41.30
26254;DHT22;53339;51.378;0.094;2023-06-14T00:26:30;15.80;41.20
26254;DHT22;53339;51.378;0.094;2023-06-14T00:28:58;15.80;41.00
26254;DHT22;53339;51.378;0.094;2023-06-14T00:31:26;15.80;40.80
26254;DHT22;53339;51.378;0.094;2023-06-14T00:33:57;15.90;40.80
26254;DHT22;53339;51.378;0.094;2023-06-14T00:36:25;15.90;40.70
26254;DHT22;53339;51.378;0.094;2023-06-14T00:38:52;15.90;40.70
26254;DHT22;53339;51.378;0.094;2023-06-14T00:41:22;16.00;40.80
26254;DHT22;53339;51.378;0.094;2023-06-14T00:43:50;16.00;40.90
26254;DHT22;53339;51.378;0.094;2023-06-14T00:46:19;15.90;41.30
26254;DHT22;53339;51.378;0.094;2023-06-14T00:48:47;15.90;41.50
26254;DHT22;53339;51.378;0.094;2023-06-14T00:51:16;15.90;41.70
26254;DHT22;53339;51.378;0.094;2023-06-14T00:53:44;15.90;41.90
26254;DHT22;53339;51.378;0.094;2023-06-14T00:56:14;15.80;41.90
26254;DHT22;53339;51.378;0.094;2023-06-14T00:58:43;15.70;42.10
26254;DHT22;53339;51.378;0.094;2023-06-14T01:01:11;15.70;42.20
26254;DHT22;53339;51.378;0.094;2023-06-14T01:03:39;15.70;42.30
26254;DHT22;53339;51.378;0.094;2023-06-14T01:06:38;15.60;42.60
26254;DHT22;53339;51.378;0.094;2023-06-14T01:09:18;15.40;43.00
26254;DHT22;53339;51.378;0.094;2023-06-14T01:12:05;15.20;43.50
26254;DHT22;53339;51.378;0.094;2023-06-14T01:14:34;15.00;43.70
26254;DHT22;53339;51.378;0.094;2023-06-14T01:17:04;14.90;43.90
26254;DHT22;53339;51.378;0.094;2023-06-14T01:19:33;14.80;44.10
26254;DHT22;53339;51.378;0.094;2023-06-14T01:22:02;14.80;44.20
26254;DHT22;53339;51.378;0.094;2023-06-14T01:24:30;14.70;44.40
26254;DHT22;53339;51.378;0.094;2023-06-14T01:27:01;14.60;44.60
26254;DHT22;53339;51.378;0.094;2023-06-14T01:29:30;14.60;44.70
26254;DHT22;53339;51.378;0.094;2023-06-14T01:32:00;14.50;45.00
26254;DHT22;53339;51.378;0.094;2023-06-14T01:34:30;14.30;45.20
26254;DHT22;53339;51.378;0.094;2023-06-14T01:37:00;14.30;45.40
26254;DHT22;53339;51.378;0.094;2023-06-14T01:39:29;14.20;45.70
26254;DHT22;53339;51.378;0.094;2023-06-14T01:41:58;14.20;45.80
26254;DHT22;53339;51.378;0.094;2023-06-14T01:44:27;14.20;45.90
26254;DHT22;53339;51.378;0.094;2023-06-14T01:46:56;14.20;46.10
26254;DHT22;53339;51.378;0.094;2023-06-14T01:49:24;14.10;46.40
26254;DHT22;53339;51.378;0.094;2023-06-14T01:51:53;14.00;46.70
26254;DHT22;53339;51.378;0.094;2023-06-14T01:54:21;13.90;47.00
26254;DHT22;53339;51.378;0.094;2023-06-14T01:56:50;13.90;47.20
26254;DHT22;53339;51.378;0.094;2023-06-14T01:59:18;13.90;47.40
26254;DHT22;53339;51.378;0.094;2023-06-14T02:01:45;13.90;47.50
26254;DHT22;53339;51.378;0.094;2023-06-14T02:04:13;13.90;47.90
26254;DHT22;53339;51.378;0.094;2023-06-14T02:06:41;13.90;48.10
26254;DHT22;53339;51.378;0.094;2023-06-14T02:09:09;13.90;48.40
26254;DHT22;53339;51.378;0.094;2023-06-14T02:11:36;13.90;48.90
26254;DHT22;53339;51.378;0.094;2023-06-14T02:14:04;13.90;49.40
26254;DHT22;53339;51.378;0.094;2023-06-14T02:16:31;13.80;49.90
26254;DHT22;53339;51.378;0.094;2023-06-14T02:19:00;13.70;50.10
26254;DHT22;53339;51.378;0.094;2023-06-14T02:21:27;13.70;50.40
26254;DHT22;53339;51.378;0.094;2023-06-14T02:23:55;13.70;50.70
26254;DHT22;53339;51.378;0.094;2023-06-14T02:26:23;13.60;51.10
26254;DHT22;53339;51.378;0.094;2023-06-14T02:28:51;13.60;51.50
26254;DHT22;53339;51.378;0.094;2023-06-14T02:31:19;13.60;51.90
26254;DHT22;53339;51.378;0.094;2023-06-14T02:33:48;13.60;52.10
26254;DHT22;53339;51.378;0.094;2023-06-14T02:36:17;13.60;52.50
26254;DHT22;53339;51.378;0.094;2023-06-14T02:38:44;13.60;52.80
26254;DHT22;53339;51.378;0.094;2023-06-14T02:41:12;13.60;53.00
26254;DHT22;53339;51.378;0.094;2023-06-14T02:43:40;13.60;53.30
26254;DHT22;53339;51.378;0.094;2023-06-14T02:46:08;13.60;53.50
26254;DHT22;53339;51.378;0.094;2023-06-14T02:48:35;13.60;53.70
26254;DHT22;53339;51.378;0.094;2023-06-14T02:51:03;13.60;54.10
26254;DHT22;53339;51.378;0.094;2023-06-14T02:53:31;13.60;54.40
26254;DHT22;53339;51.378;0.094;2023-06-14T02:55:59;13.50;54.80
26254;DHT22;53339;51.378;0.094;2023-06-14T02:58:28;13.40;55.00
26254;DHT22;53339;51.378;0.094;2023-06-14T03:00:56;13.30;55.30
26254;DHT22;53339;51.378;0.094;2023-06-14T03:03:24;13.30;55.40
26254;DHT22;53339;51.378;0.094;2023-06-14T03:05:55;13.30;55.50
26254;DHT22;53339;51.378;0.094;2023-06-14T03:08:27;13.30;56.00
26254;DHT22;53339;51.378;0.094;2023-06-14T03:11:00;13.30;56.20
26254;DHT22;53339;51.378;0.094;2023-06-14T03:13:30;13.30;56.50
26254;DHT22;53339;51.378;0.094;2023-06-14T03:16:00;13.30;56.70
26254;DHT22;53339;51.378;0.094;2023-06-14T03:18:32;13.30;57.30
26254;DHT22;53339;51.378;0.094;2023-06-14T03:21:04;13.20;57.50
26254;DHT22;53339;51.378;0.094;2023-06-14T03:23:33;13.20;57.90
26254;DHT22;53339;51.378;0.094;2023-06-14T03:26:03;13.20;58.00
26254;DHT22;53339;51.378;0.094;2023-06-14T03:28:31;13.20;58.00
26254;DHT22;53339;51.378;0.094;2023-06-14T03:30:59;13.20;58.20
26254;DHT22;53339;51.378;0.094;2023-06-14T03:33:30;13.20;58.50
26254;DHT22;53339;51.378;0.094;2023-06-14T03:35:58;13.10;58.70
26254;DHT22;53339;51.378;0.094;2023-06-14T03:38:27;13.10;58.80
26254;DHT22;53339;51.378;0.094;2023-06-14T03:40:55;13.10;58.90
26254;DHT22;53339;51.378;0.094;2023-06-14T03:43:23;13.10;59.00
26254;DHT22;53339;51.378;0.094;2023-06-14T03:45:51;13.20;59.30
26254;DHT22;53339;51.378;0.094;2023-06-14T03:48:20;13.20;59.20
26254;DHT22;53339;51.378;0.094;2023-06-14T03:50:48;13.20;59.20
26254;DHT22;53339;51.378;0.094;2023-06-14T03:53:16;13.20;59.40
26254;DHT22;53339;51.378;0.094;2023-06-14T03:55:49;13.20;59.50
26254;DHT22;53339;51.378;0.094;2023-06-14T03:58:20;13.20;59.60
26254;DHT22;53339;51.378;0.094;2023-06-14T04:00:48;13.20;59.80
26254;DHT22;53339;51.378;0.094;2023-06-14T04:03:16;13.20;60.00
26254;DHT22;53339;51.378;0.094;2023-06-14T04:05:44;13.20;60.20
26254;DHT22;53339;51.378;0.094;2023-06-14T04:08:12;13.30;60.30
26254;DHT22;53339;51.378;0.094;2023-06-14T04:10:41;13.30;60.30
26254;DHT22;53339;51.378;0.094;2023-06-14T04:13:09;13.30;60.30
26254;DHT22;53339;51.378;0.094;2023-06-14T04:15:40;13.30;60.50
26254;DHT22;53339;51.378;0.094;2023-06-14T04:18:17;13.40;60.50
26254;DHT22;53339;51.378;0.094;2023-06-14T04:20:49;13.30;60.50
26254;DHT22;53339;51.378;0.094;2023-06-14T04:23:17;13.30;60.60
26254;DHT22;53339;51.378;0.094;2023-06-14T04:25:46;13.40;60.90
26254;DHT22;53339;51.378;0.094;2023-06-14T04:28:15;13.30;61.30
26254;DHT22;53339;51.378;0.094;2023-06-14T04:30:44;13.40;61.40
26254;DHT22;53339;51.378;0.094;2023-06-14T04:33:14;13.40;61.30
26254;DHT22;53339;51.378;0.094;2023-06-14T04:35:42;13.40;61.50
26254;DHT22;53339;51.378;0.094;2023-06-14T04:38:10;13.40;61.50
26254;DHT22;53339;51.378;0.094;2023-06-14T04:40:38;13.30;61.60
26254;DHT22;53339;51.378;0.094;2023-06-14T04:43:12;13.40;61.70
26254;DHT22;53339;51.378;0.094;2023-06-14T04:45:42;13.30;62.20
26254;DHT22;53339;51.378;0.094;2023-06-14T04:48:12;13.40;62.40
26254;DHT22;53339;51.378;0.094;2023-06-14T04:50:40;13.40;62.50
26254;DHT22;53339;51.378;0.094;2023-06-14T04:53:08;13.50;62.50
26254;DHT22;53339;51.378;0.094;2023-06-14T04:55:36;13.60;62.40
26254;DHT22;53339;51.378;0.094;2023-06-14T04:58:05;13.60;62.50
26254;DHT22;53339;51.378;0.094;2023-06-14T05:00:32;13.70;62.70
26254;DHT22;53339;51.378;0.094;2023-06-14T05:03:00;13.70;62.60
26254;DHT22;53339;51.378;0.094;2023-06-14T05:05:29;13.80;62.50
26254;DHT22;53339;51.378;0.094;2023-06-14T05:07:56;13.80;62.90
26254;DHT22;53339;51.378;0.094;2023-06-14T05:10:24;13.90;62.90
26254;DHT22;53339;51.378;0.094;2023-06-14T05:12:52;13.90;62.80
26254;DHT22;53339;51.378;0.094;2023-06-14T05:15:20;14.00;63.10
26254;DHT22;53339;51.378;0.094;2023-06-14T05:17:53;14.00;63.20
26254;DHT22;53339;51.378;0.094;2023-06-14T05:20:24;14.10;63.10
26254;DHT22;53339;51.378;0.094;2023-06-14T05:22:53;14.20;63.10
26254;DHT22;53339;51.378;0.094;2023-06-14T05:25:21;14.30;63.10
26254;DHT22;53339;51.378;0.094;2023-06-14T05:27:49;14.30;63.10
26254;DHT22;53339;51.378;0.094;2023-06-14T05:30:16;14.40;63.00
26254;DHT22;53339;51.378;0.094;2023-06-14T05:32:45;14.40;63.10
26254;DHT22;53339;51.378;0.094;2023-06-14T05:35:12;14.50;63.20
26254;DHT22;53339;51.378;0.094;2023-06-14T05:37:40;14.60;63.30
26254;DHT22;53339;51.378;0.094;2023-06-14T05:40:08;14.60;63.30
26254;DHT22;53339;51.378;0.094;2023-06-14T05:42:36;14.70;63.50
26254;DHT22;53339;51.378;0.094;2023-06-14T05:45:04;14.80;63.40
26254;DHT22;53339;51.378;0.094;2023-06-14T05:47:33;14.90;63.20
26254;DHT22;53339;51.378;0.094;2023-06-14T05:50:01;15.00;63.20
26254;DHT22;53339;51.378;0.094;2023-06-14T05:52:30;15.00;63.50
26254;DHT22;53339;51.378;0.094;2023-06-14T05:54:58;15.10;63.50
26254;DHT22;53339;51.378;0.094;2023-06-14T05:57:27;15.10;63.50
26254;DHT22;53339;51.378;0.094;2023-06-14T05:59:55;15.10;63.50
26254;DHT22;53339;51.378;0.094;2023-06-14T06:02:22;15.10;63.80
26254;DHT22;53339;51.378;0.094;2023-06-14T06:04:50;15.20;63.80
26254;DHT22;53339;51.378;0.094;2023-06-14T06:07:18;15.30;63.70
26254;DHT22;53339;51.378;0.094;2023-06-14T06:09:46;15.40;63.80
26254;DHT22;53339;51.378;0.094;2023-06-14T06:12:13;15.60;63.70
26254;DHT22;53339;51.378;0.094;2023-06-14T06:14:41;15.70;63.90
26254;DHT22;53339;51.378;0.094;2023-06-14T06:17:09;15.60;63.70
26254;DHT22;53339;51.378;0.094;2023-06-14T06:19:37;15.70;63.90
26254;DHT22;53339;51.378;0.094;2023-06-14T06:22:04;15.70;63.90
26254;DHT22;53339;51.378;0.094;2023-06-14T06:24:33;15.70;63.90
26254;DHT22;53339;51.378;0.094;2023-06-14T06:27:01;15.70;64.10
26254;DHT22;53339;51.378;0.094;2023-06-14T06:29:29;15.70;63.90
26254;DHT22;53339;51.378;0.094;2023-06-14T06:31:57;15.80;64.20
26254;DHT22;53339;51.378;0.094;2023-06-14T06:34:24;16.00;64.60
26254;DHT22;53339;51.378;0.094;2023-06-14T06:36:53;16.10;64.50
26254;DHT22;53339;51.378;0.094;2023-06-14T06:39:21;16.20;64.30
26254;DHT22;53339;51.378;0.094;2023-06-14T06:41:48;16.20;64.30
26254;DHT22;53339;51.378;0.094;2023-06-14T06:44:26;16.30;64.20
26254;DHT22;53339;51.378;0.094;2023-06-14T06:46:57;16.40;64.20
26254;DHT22;53339;51.378;0.094;2023-06-14T06:49:24;16.40;64.10
26254;DHT22;53339;51.378;0.094;2023-06-14T06:52:05;16.50;64.00
26254;DHT22;53339;51.378;0.094;2023-06-14T06:54:34;16.50;63.80
26254;DHT22;53339;51.378;0.094;2023-06-14T06:57:02;16.60;64.00
26254;DHT22;53339;51.378;0.094;2023-06-14T06:59:30;16.60;64.00
26254;DHT22;53339;51.378;0.094;2023-06-14T07:01:58;16.70;64.30
26254;DHT22;53339;51.378;0.094;2023-06-14T07:04:25;16.70;64.70
26254;DHT22;53339;51.378;0.094;2023-06-14T07:06:53;16.70;64.50
26254;DHT22;53339;51.378;0.094;2023-06-14T07:09:21;16.90;64.30
26254;DHT22;53339;51.378;0.094;2023-06-14T07:11:48;16.90;64.40
26254;DHT22;53339;51.378;0.094;2023-06-14T07:14:16;17.00;64.20
26254;DHT22;53339;51.378;0.094;2023-06-14T07:16:44;17.20;64.30
26254;DHT22;53339;51.378;0.094;2023-06-14T07:19:12;17.30;64.20
26254;DHT22;53339;51.378;0.094;2023-06-14T07:21:39;17.40;64.00
26254;DHT22;53339;51.378;0.094;2023-06-14T07:24:07;17.50;63.80
26254;DHT22;53339;51.378;0.094;2023-06-14T07:26:35;17.60;63.70
26254;DHT22;53339;51.378;0.094;2023-06-14T07:29:03;17.70;63.40
26254;DHT22;53339;51.378;0.094;2023-06-14T07:31:31;17.80;63.50
26254;DHT22;53339;51.378;0.094;2023-06-14T07:33:58;17.90;63.10
26254;DHT22;53339;51.378;0.094;2023-06-14T07:36:26;18.00;63.10
26254;DHT22;53339;51.378;0.094;2023-06-14T07:38:54;18.10;63.10
26254;DHT22;53339;51.378;0.094;2023-06-14T07:41:21;18.20;63.20
26254;DHT22;53339;51.378;0.094;2023-06-14T07:43:49;18.20;63.10
26254;DHT22;53339;51.378;0.094;2023-06-14T07:46:17;18.30;62.90
26254;DHT22;53339;51.378;0.094;2023-06-14T07:48:45;18.40;62.90
26254;DHT22;53339;51.378;0.094;2023-06-14T07:51:12;18.60;62.60
26254;DHT22;53339;51.378;0.094;2023-06-14T07:53:41;18.70;62.50
26254;DHT22;53339;51.378;0.094;2023-06-14T07:56:09;18.80;62.30
26254;DHT22;53339;51.378;0.094;2023-06-14T07:58:37;18.90;62.10
26254;DHT22;53339;51.378;0.094;2023-06-14T08:01:05;19.10;62.00
26254;DHT22;53339;51.378;0.094;2023-06-14T08:03:35;19.20;61.90
26254;DHT22;53339;51.378;0.094;2023-06-14T08:06:03;19.30;61.70
26254;DHT22;53339;51.378;0.094;2023-06-14T08:08:34;19.40;61.60
26254;DHT22;53339;51.378;0.094;2023-06-14T08:11:02;19.60;61.50
26254;DHT22;53339;51.378;0.094;2023-06-14T08:13:30;19.70;61.30
26254;DHT22;53339;51.378;0.094;2023-06-14T08:15:57;19.90;61.00
26254;DHT22;53339;51.378;0.094;2023-06-14T08:18:26;20.00;60.90
26254;DHT22;53339;51.378;0.094;2023-06-14T08:20:53;20.00;60.80
26254;DHT22;53339;51.378;0.094;2023-06-14T08:23:21;20.10;60.80
26254;DHT22;53339;51.378;0.094;2023-06-14T08:25:49;20.20;60.60
26254;DHT22;53339;51.378;0.094;2023-06-14T08:28:17;20.30;60.50
26254;DHT22;53339;51.378;0.094;2023-06-14T08:30:45;20.40;60.30
26254;DHT22;53339;51.378;0.094;2023-06-14T08:33:12;20.40;60.20
26254;DHT22;53339;51.378;0.094;2023-06-14T08:35:43;20.50;60.20
26254;DHT22;53339;51.378;0.094;2023-06-14T08:38:11;20.60;60.10
26254;DHT22;53339;51.378;0.094;2023-06-14T08:40:40;20.70;59.90
26254;DHT22;53339;51.378;0.094;2023-06-14T08:43:09;20.80;59.80
26254;DHT22;53339;51.378;0.094;2023-06-14T08:45:36;20.90;59.60
26254;DHT22;53339;51.378;0.094;2023-06-14T08:48:05;21.00;59.50
26254;DHT22;53339;51.378;0.094;2023-06-14T08:50:34;21.10;59.40
26254;DHT22;53339;51.378;0.094;2023-06-14T08:53:05;21.20;59.30
26254;DHT22;53339;51.378;0.094;2023-06-14T08:55:33;21.30;59.10
26254;DHT22;53339;51.378;0.094;2023-06-14T08:58:04;21.40;58.80
26254;DHT22;53339;51.378;0.094;2023-06-14T09:00:32;21.50;58.50
26254;DHT22;53339;51.378;0.094;2023-06-14T09:03:01;21.60;58.30
26254;DHT22;53339;51.378;0.094;2023-06-14T09:05:29;21.70;58.20
26254;DHT22;53339;51.378;0.094;2023-06-14T09:07:56;21.80;58.00
26254;DHT22;53339;51.378;0.094;2023-06-14T09:10:31;21.90;57.70
26254;DHT22;53339;51.378;0.094;2023-06-14T09:13:05;22.00;57.30
26254;DHT22;53339;51.378;0.094;2023-06-14T09:15:34;22.00;57.20
26254;DHT22;53339;51.378;0.094;2023-06-14T09:18:02;22.10;57.10
26254;DHT22;53339;51.378;0.094;2023-06-14T09:20:31;22.20;57.00
26254;DHT22;53339;51.378;0.094;2023-06-14T09:23:00;22.30;56.80
26254;DHT22;53339;51.378;0.094;2023-06-14T09:25:28;22.30;56.50
26254;DHT22;53339;51.378;0.094;2023-06-14T09:28:09;22.40;56.40
26254;DHT22;53339;51.378;0.094;2023-06-14T09:30:38;22.40;56.30
26254;DHT22;53339;51.378;0.094;2023-06-14T09:33:06;22.50;56.20
26254;DHT22;53339;51.378;0.094;2023-06-14T09:35:34;22.60;55.90
26254;DHT22;53339;51.378;0.094;2023-06-14T09:38:03;22.70;55.60
26254;DHT22;53339;51.378;0.094;2023-06-14T09:40:34;22.80;55.50
26254;DHT22;53339;51.378;0.094;2023-06-14T09:43:06;23.00;55.40
26254;DHT22;53339;51.378;0.094;2023-06-14T09:45:41;23.10;55.20
26254;DHT22;53339;51.378;0.094;2023-06-14T09:48:11;23.30;55.00
26254;DHT22;53339;51.378;0.094;2023-06-14T09:50:39;23.40;54.70
26254;DHT22;53339;51.378;0.094;2023-06-14T09:53:10;23.50;54.20
26254;DHT22;53339;51.378;0.094;2023-06-14T09:55:40;23.60;54.00
26254;DHT22;53339;51.378;0.094;2023-06-14T09:58:10;23.70;53.80
26254;DHT22;53339;51.378;0.094;2023-06-14T10:00:39;23.80;53.60
26254;DHT22;53339;51.378;0.094;2023-06-14T10:03:25;23.90;53.50
26254;DHT22;53339;51.378;0.094;2023-06-14T10:06:02;24.00;53.50
26254;DHT22;53339;51.378;0.094;2023-06-14T10:08:30;24.10;53.30
26254;DHT22;53339;51.378;0.094;2023-06-14T10:11:00;24.20;53.10
26254;DHT22;53339;51.378;0.094;2023-06-14T10:13:32;24.30;53.00
26254;DHT22;53339;51.378;0.094;2023-06-14T10:18:45;24.50;52.40
26254;DHT22;53339;51.378;0.094;2023-06-14T10:24:17;24.70;52.00
26254;DHT22;53339;51.378;0.094;2023-06-14T10:26:57;24.90;51.50
26254;DHT22;53339;51.378;0.094;2023-06-14T10:29:27;24.90;51.20
26254;DHT22;53339;51.378;0.094;2023-06-14T10:32:00;25.00;51.20
26254;DHT22;53339;51.378;0.094;2023-06-14T10:34:29;25.10;51.10
26254;DHT22;53339;51.378;0.094;2023-06-14T10:37:06;25.20;50.90
26254;DHT22;53339;51.378;0.094;2023-06-14T10:39:42;25.30;51.00
26254;DHT22;53339;51.378;0.094;2023-06-14T10:42:12;25.50;50.30
26254;DHT22;53339;51.378;0.094;2023-06-14T10:44:41;25.70;50.10
26254;DHT22;53339;51.378;0.094;2023-06-14T10:47:30;25.70;50.10
26254;DHT22;53339;51.378;0.094;2023-06-14T10:50:08;25.90;49.90
26254;DHT22;53339;51.378;0.094;2023-06-14T10:52:43;26.00;49.30
26254;DHT22;53339;51.378;0.094;2023-06-14T10:55:13;26.10;48.90
26254;DHT22;53339;51.378;0.094;2023-06-14T10:57:46;26.10;48.30
26254;DHT22;53339;51.378;0.094;2023-06-14T11:00:20;26.20;48.40
26254;DHT22;53339;51.378;0.094;2023-06-14T11:05:57;26.40;47.60
26254;DHT22;53339;51.378;0.094;2023-06-14T11:11:32;26.60;47.20
26254;DHT22;53339;51.378;0.094;2023-06-14T11:14:03;26.70;47.20
26254;DHT22;53339;51.378;0.094;2023-06-14T11:16:31;27.00;46.90
26254;DHT22;53339;51.378;0.094;2023-06-14T11:19:01;27.10;46.20
26254;DHT22;53339;51.378;0.094;2023-06-14T11:21:32;27.20;46.00
26254;DHT22;53339;51.378;0.094;2023-06-14T11:24:01;27.30;46.00
26254;DHT22;53339;51.378;0.094;2023-06-14T11:26:30;27.40;45.60
26254;DHT22;53339;51.378;0.094;2023-06-14T11:29:00;27.60;45.50
26254;DHT22;53339;51.378;0.094;2023-06-14T11:31:29;27.80;45.10
26254;DHT22;53339;51.378;0.094;2023-06-14T11:33:58;28.00;44.90
26254;DHT22;53339;51.378;0.094;2023-06-14T11:36:28;28.10;44.30
26254;DHT22;53339;51.378;0.094;2023-06-14T11:39:06;28.20;44.00
26254;DHT22;53339;51.378;0.094;2023-06-14T11:41:41;28.30;44.10
26254;DHT22;53339;51.378;0.094;2023-06-14T11:44:09;28.30;43.90
26254;DHT22;53339;51.378;0.094;2023-06-14T11:46:38;28.40;43.70
26254;DHT22;53339;51.378;0.094;2023-06-14T11:49:07;28.30;43.70
26254;DHT22;53339;51.378;0.094;2023-06-14T11:51:35;28.40;43.60
26254;DHT22;53339;51.378;0.094;2023-06-14T11:54:03;28.60;43.70
26254;DHT22;53339;51.378;0.094;2023-06-14T11:56:32;28.70;43.30
26254;DHT22;53339;51.378;0.094;2023-06-14T11:59:03;28.90;43.10
26254;DHT22;53339;51.378;0.094;2023-06-14T12:01:31;29.10;43.10
26254;DHT22;53339;51.378;0.094;2023-06-14T12:04:00;29.20;42.60
26254;DHT22;53339;51.378;0.094;2023-06-14T12:06:29;29.30;42.40
26254;DHT22;53339;51.378;0.094;2023-06-14T12:09:03;29.40;41.80
26254;DHT22;53339;51.378;0.094;2023-06-14T12:11:34;29.40;42.00
26254;DHT22;53339;51.378;0.094;2023-06-14T12:14:07;29.50;42.00
26254;DHT22;53339;51.378;0.094;2023-06-14T12:16:38;29.70;41.70
26254;DHT22;53339;51.378;0.094;2023-06-14T12:19:16;29.80;41.70
26254;DHT22;53339;51.378;0.094;2023-06-14T12:21:48;29.90;41.50
26254;DHT22;53339;51.378;0.094;2023-06-14T12:24:19;30.00;40.80
26254;DHT22;53339;51.378;0.094;2023-06-14T12:26:47;30.00;40.40
26254;DHT22;53339;51.378;0.094;2023-06-14T12:29:15;30.20;40.40
26254;DHT22;53339;51.378;0.094;2023-06-14T12:31:42;30.60;40.50
26254;DHT22;53339;51.378;0.094;2023-06-14T12:34:10;31.20;39.90
26254;DHT22;53339;51.378;0.094;2023-06-14T12:36:38;31.70;38.10
26254;DHT22;53339;51.378;0.094;2023-06-14T12:39:12;32.20;36.80
26254;DHT22;53339;51.378;0.094;2023-06-14T12:41:40;32.60;35.50
26254;DHT22;53339;51.378;0.094;2023-06-14T12:44:12;32.90;35.80
26254;DHT22;53339;51.378;0.094;2023-06-14T12:46:41;33.30;36.40
26254;DHT22;53339;51.378;0.094;2023-06-14T12:49:10;33.70;35.90
26254;DHT22;53339;51.378;0.094;2023-06-14T12:51:39;34.20;35.90
26254;DHT22;53339;51.378;0.094;2023-06-14T12:54:07;34.60;35.10
26254;DHT22;53339;51.378;0.094;2023-06-14T12:56:36;34.90;33.50
26254;DHT22;53339;51.378;0.094;2023-06-14T12:59:03;35.10;33.10
26254;DHT22;53339;51.378;0.094;2023-06-14T13:01:31;35.40;33.30
26254;DHT22;53339;51.378;0.094;2023-06-14T13:03:59;35.70;33.00
26254;DHT22;53339;51.378;0.094;2023-06-14T13:06:27;35.80;32.10
26254;DHT22;53339;51.378;0.094;2023-06-14T13:08:57;35.90;30.80
26254;DHT22;53339;51.378;0.094;2023-06-14T13:11:27;36.00;31.70
26254;DHT22;53339;51.378;0.094;2023-06-14T13:13:54;36.20;31.80
26254;DHT22;53339;51.378;0.094;2023-06-14T13:16:22;36.50;31.20
26254;DHT22;53339;51.378;0.094;2023-06-14T13:18:50;36.80;29.40
26254;DHT22;53339;51.378;0.094;2023-06-14T13:21:18;36.90;28.50
26254;DHT22;53339;51.378;0.094;2023-06-14T13:23:46;36.90;29.30
26254;DHT22;53339;51.378;0.094;2023-06-14T13:26:14;37.10;28.40
26254;DHT22;53339;51.378;0.094;2023-06-14T13:28:42;37.20;28.90
26254;DHT22;53339;51.378;0.094;2023-06-14T13:31:10;37.30;27.90
26254;DHT22;53339;51.378;0.094;2023-06-14T13:33:38;37.20;27.60
26254;DHT22;53339;51.378;0.094;2023-06-14T13:36:05;37.20;27.30
26254;DHT22;53339;51.378;0.094;2023-06-14T13:38:33;37.40;26.90
26254;DHT22;53339;51.378;0.094;2023-06-14T13:41:01;37.50;26.90
26254;DHT22;53339;51.378;0.094;2023-06-14T13:43:29;37.70;26.80
26254;DHT22;53339;51.378;0.094;2023-06-14T13:45:58;38.00;25.20
26254;DHT22;53339;51.378;0.094;2023-06-14T13:48:26;37.90;24.70
26254;DHT22;53339;51.378;0.094;2023-06-14T13:50:54;37.80;24.90
26254;DHT22;53339;51.378;0.094;2023-06-14T13:53:21;37.70;25.00
26254;DHT22;53339;51.378;0.094;2023-06-14T13:55:49;37.90;24.00
26254;DHT22;53339;51.378;0.094;2023-06-14T13:58:17;37.90;24.60
26254;DHT22;53339;51.378;0.094;2023-06-14T14:00:45;38.10;24.40
26254;DHT22;53339;51.378;0.094;2023-06-14T14:03:13;38.10;24.00
26254;DHT22;53339;51.378;0.094;2023-06-14T14:05:40;38.00;23.80
26254;DHT22;53339;51.378;0.094;2023-06-14T14:08:08;37.90;23.20
26254;DHT22;53339;51.378;0.094;2023-06-14T14:10:36;37.70;23.20
26254;DHT22;53339;51.378;0.094;2023-06-14T14:13:04;37.60;23.70
26254;DHT22;53339;51.378;0.094;2023-06-14T14:15:32;37.70;23.70
26254;DHT22;53339;51.378;0.094;2023-06-14T14:18:02;37.80;23.20
26254;DHT22;53339;51.378;0.094;2023-06-14T14:20:31;37.60;23.00
26254;DHT22;53339;51.378;0.094;2023-06-14T14:22:59;37.50;23.00
26254;DHT22;53339;51.378;0.094;2023-06-14T14:25:26;37.50;22.60
26254;DHT22;53339;51.378;0.094;2023-06-14T14:27:54;37.70;23.00
26254;DHT22;53339;51.378;0.094;2023-06-14T14:30:22;37.80;22.10
26254;DHT22;53339;51.378;0.094;2023-06-14T14:32:51;37.70;22.40
26254;DHT22;53339;51.378;0.094;2023-06-14T14:35:20;37.90;22.20
26254;DHT22;53339;51.378;0.094;2023-06-14T14:37:49;37.90;21.60
26254;DHT22;53339;51.378;0.094;2023-06-14T14:40:17;37.90;21.20
26254;DHT22;53339;51.378;0.094;2023-06-14T14:42:45;38.00;21.30
26254;DHT22;53339;51.378;0.094;2023-06-14T14:45:12;38.00;20.80
26254;DHT22;53339;51.378;0.094;2023-06-14T14:47:40;37.80;20.20
26254;DHT22;53339;51.378;0.094;2023-06-14T14:50:08;37.60;20.10
26254;DHT22;53339;51.378;0.094;2023-06-14T14:52:36;37.60;20.30
26254;DHT22;53339;51.378;0.094;2023-06-14T14:55:05;37.60;20.10
26254;DHT22;53339;51.378;0.094;2023-06-14T14:57:33;37.70;20.10
26254;DHT22;53339;51.378;0.094;2023-06-14T15:00:00;37.80;19.90
26254;DHT22;53339;51.378;0.094;2023-06-14T15:02:29;38.00;20.00
26254;DHT22;53339;51.378;0.094;2023-06-14T15:04:57;38.20;20.00
26254;DHT22;53339;51.378;0.094;2023-06-14T15:07:29;38.40;20.00
26254;DHT22;53339;51.378;0.094;2023-06-14T15:09:57;38.60;19.30
26254;DHT22;53339;51.378;0.094;2023-06-14T15:12:25;38.50;19.80
26254;DHT22;53339;51.378;0.094;2023-06-14T15:14:54;38.50;19.70
26254;DHT22;53339;51.378;0.094;2023-06-14T15:17:22;38.60;19.70
26254;DHT22;53339;51.378;0.094;2023-06-14T15:19:52;38.90;19.80
26254;DHT22;53339;51.378;0.094;2023-06-14T15:22:20;39.30;19.90
26254;DHT22;53339;51.378;0.094;2023-06-14T15:24:47;39.50;19.40
26254;DHT22;53339;51.378;0.094;2023-06-14T15:27:17;39.50;19.00
26254;DHT22;53339;51.378;0.094;2023-06-14T15:29:45;39.40;19.40
26254;DHT22;53339;51.378;0.094;2023-06-14T15:32:14;39.50;19.30
26254;DHT22;53339;51.378;0.094;2023-06-14T15:34:43;39.60;19.10
26254;DHT22;53339;51.378;0.094;2023-06-14T15:37:11;39.40;19.30
26254;DHT22;53339;51.378;0.094;2023-06-14T15:39:39;39.30;19.50
26254;DHT22;53339;51.378;0.094;2023-06-14T15:42:07;39.30;19.50
26254;DHT22;53339;51.378;0.094;2023-06-14T15:44:35;39.20;19.50
26254;DHT22;53339;51.378;0.094;2023-06-14T15:47:03;39.30;19.60
26254;DHT22;53339;51.378;0.094;2023-06-14T15:49:31;39.30;19.40
26254;DHT22;53339;51.378;0.094;2023-06-14T15:51:59;39.10;19.30
26254;DHT22;53339;51.378;0.094;2023-06-14T15:54:28;38.80;19.50